GOOYFMMI

Guest
Details From GOOY - Dakar Leopold Sedar Senghor Intl
To FMMI - Ivato
Flight Number -
Tags Generated
Created
Modified
Stats Distance 4,337 nm / 8,033 km
Max Altitude 0 ft / 0 m
Waypoints 5
Social Downloads 0
Likes 0
Share VATSIM

Download

Looking for another format? Having issues loading an existing format? Contact us
Advertisement - Login to hide

Notes

Generated

Route

GOOY OD DVL18 IA FMMI

ID Type Via Altitude Latitude Longitude Leg Dist Tot Dist Heading (true) Name
O GOOY APT - 0 ft / 0 m 14.73171˚ -17.50427˚ - 0 nm - -
OD NDB - 0 ft / 0 m 9.54911˚ -7.54861˚ 662 nm 662 nm 117° / 119° ODIENNE NDB
DVL18 FIX - 0 ft / 0 m -12.99897˚ 34.02113˚ 2824 nm 3486 nm 118° / 117° -
IA NDB - 0 ft / 0 m -18.79336˚ 47.45492˚ 849 nm 4336 nm 116° / 112° ANTANANARIVO IVATO NDB
O FMMI APT - 0 ft / 0 m -18.79479˚ 47.46427˚ 0 nm 4337 nm 99° / 99° -

Altitude Profile

Advertisement - Login to hide

Weather


0- 5 10 15 20 25 30 35+ Temperature / ° C

Clouds and Precipitation
Forecast for 2017-12-12 00:00 UTC. Updated 2 hours ago

Ground ~20,000 ft ~40,000 ft Winds

GOOY

Details ICAO GOOY (DKR)
Name Dakar Leopold Sedar Senghor Intl
Region Senegal
Timezone Africa/Dakar (UTC+0.0)
Stats Elevation 85 ft / 26 m (AMSL)
Location 14.739711° -17.490226°
Runways 2
Magnetic Variation 7.348° W

METAR

GOOY 112200Z 04008KT 4000 DU NSC 24/18 Q1013

Decode

TAF

TAF GOOY 111730Z 1118/1224 01010KT 4500 DU NSC

Decode

Departure Runways

ID Width Length Bearing (true) Bearing (mag) Surface Threshold Offset Overrun Length
03 98 ft / 30 m 4,921 ft / 1,500 m 22.31° 29.66° Asphalt 0 ft / 0 m 98 ft / 30 m
18 148 ft / 45 m 11,511 ft / 3,509 m 172.57° 179.92° Asphalt 525 ft / 160 m 197 ft / 60 m
21 98 ft / 30 m 4,921 ft / 1,500 m 202.31° 209.66° Asphalt 0 ft / 0 m 1,590 ft / 485 m
36 148 ft / 45 m 11,511 ft / 3,509 m 352.57° 359.92° Asphalt 0 ft / 0 m 197 ft / 60 m

FMMI

Details ICAO FMMI (TNR)
Name IVATO
Region Comoros, Mayotte, Réunion and Madagascar
Timezone Indian/Antananarivo (UTC+3.0)
Stats Elevation 4,198 ft / 1,280 m (AMSL)
Location -18.796950° 47.478806°
Runways 1
Magnetic Variation 15.160° W

METAR

FMMI 112230Z 00000KT 9999 FEW010 BKN020 19/18 Q1019 NOSIG

Decode

TAF

TAF FMMI TAF FMCH 111700Z 1118/1224 32003KT 9999 FEW020 SCT040 TEMPO 1208/1214 31013KT FEW020CB SCT030

Decode

Destination Runways

ID Width Length Bearing (true) Bearing (mag) Surface Threshold Offset Overrun Length
11 148 ft / 45 m 10,167 ft / 3,099 m 98.92° 114.08° Asphalt 0 ft / 0 m 90 ft / 27 m
29 148 ft / 45 m 10,167 ft / 3,099 m 278.91° 294.07° Asphalt 0 ft / 0 m 90 ft / 27 m

Approach Navaids

Runway Type Ident Frequency Range Bearing (true) Bearing (mag) Slope Elevation
11 Localiser IO 109.50 MHz 18 nm / 33 km 98.89° 114.05° - 4,125 ft / 1,257 m (AMSL)
11 Glidescope IO 109.50 MHz 10 nm / 19 km 98.91° 114.07° 3.00° 4,198 ft / 1,280 m (AMSL)